Time;durP1;ratioP1;P1;durP2;ratioP2;P2;SDS_P1;SDS_P2;PMS_P1;PMS_P2;Temp;Humidity;BMP_temperature;BMP_pressure;BME280_temperature;BME280_humidity;BME280_pressure;Samples;Min_cycle;Max_cycle;Signal;HPM_P1;HPM_P2
2021/12/23 00:03:30;;;;;;;21.58;10.32;;;0.20;99.90;;;;;;7259153;32;20562;-79
2021/12/23 00:07:32;;;;;;;18.58;10.98;;;0.20;99.90;;;;;;7245308;32;20177;-78
2021/12/23 00:11:34;;;;;;;18.87;10.93;;;0.20;99.90;;;;;;7261918;32;20127;-77
2021/12/23 00:19:48;;;;;;;16.23;10.50;;;0.30;99.90;;;;;;7259545;32;20577;-78
2021/12/23 00:23:50;;;;;;;20.90;10.77;;;0.30;99.90;;;;;;7252986;32;20178;-79
2021/12/23 00:27:51;;;;;;;17.58;11.05;;;0.30;99.90;;;;;;7240874;32;20138;-78
2021/12/23 00:31:53;;;;;;;17.58;10.48;;;0.40;99.90;;;;;;7265739;32;20192;-79
2021/12/23 00:35:56;;;;;;;19.17;10.85;;;0.40;99.90;;;;;;7253996;32;20130;-78
2021/12/23 00:39:58;;;;;;;21.00;11.32;;;0.40;99.90;;;;;;7265565;32;20135;-79
2021/12/23 00:44:00;;;;;;;17.75;11.35;;;0.40;99.90;;;;;;7243500;32;20230;-78
2021/12/23 00:48:02;;;;;;;19.00;11.10;;;0.40;99.90;;;;;;7239331;32;20198;-79
2021/12/23 00:52:06;;;;;;;18.85;10.82;;;0.40;99.90;;;;;;7236122;32;20217;-79
2021/12/23 00:56:11;;;;;;;20.05;10.93;;;0.50;99.90;;;;;;7257241;32;20274;-78
2021/12/23 01:00:20;;;;;;;21.70;11.63;;;0.50;99.90;;;;;;7240148;32;20317;-78
2021/12/23 01:04:22;;;;;;;19.85;11.30;;;0.50;99.90;;;;;;7245869;32;20113;-79
2021/12/23 01:08:24;;;;;;;20.35;11.57;;;0.40;99.90;;;;;;7245183;32;20217;-77
2021/12/23 01:12:32;;;;;;;19.23;11.38;;;0.60;99.90;;;;;;7245309;32;20600;-78
2021/12/23 01:16:49;;;;;;;19.33;11.32;;;0.50;99.90;;;;;;7249515;32;20299;-77
2021/12/23 01:21:03;;;;;;;22.60;11.45;;;0.50;99.90;;;;;;7253601;32;20521;-78
2021/12/23 01:25:05;;;;;;;21.48;11.70;;;0.50;99.90;;;;;;7259452;32;20695;-79
2021/12/23 01:29:08;;;;;;;18.35;11.00;;;0.40;99.90;;;;;;7253730;32;20487;-78
2021/12/23 01:33:11;;;;;;;22.92;11.57;;;0.40;99.90;;;;;;7243269;32;20089;-78
2021/12/23 01:37:13;;;;;;;19.62;12.07;;;0.50;99.90;;;;;;7228538;32;20120;-78
2021/12/23 01:41:15;;;;;;;20.02;11.45;;;0.50;99.90;;;;;;7233769;32;20184;-78
2021/12/23 01:45:24;;;;;;;18.95;11.63;;;0.50;99.90;;;;;;7247705;32;20138;-79
2021/12/23 01:49:26;;;;;;;19.40;10.90;;;0.50;99.90;;;;;;7227009;32;20554;-77
2021/12/23 01:53:28;;;;;;;22.23;11.63;;;0.50;99.90;;;;;;7248761;32;20517;-77
2021/12/23 01:57:31;;;;;;;23.30;12.10;;;0.50;99.90;;;;;;7239914;32;20108;-79
2021/12/23 02:01:33;;;;;;;18.55;10.95;;;0.50;99.90;;;;;;7241557;32;20193;-78
2021/12/23 02:05:35;;;;;;;22.23;12.45;;;0.40;99.90;;;;;;7252865;32;20170;-77
2021/12/23 02:09:51;;;;;;;20.73;11.73;;;0.40;99.90;;;;;;7218778;32;20676;-77
2021/12/23 02:13:53;;;;;;;21.27;11.80;;;0.50;99.90;;;;;;7240921;32;20101;-78
2021/12/23 02:17:55;;;;;;;20.65;12.50;;;0.50;99.90;;;;;;7256109;32;20108;-78
2021/12/23 02:21:57;;;;;;;22.60;12.05;;;0.50;99.90;;;;;;7235303;32;20134;-78
2021/12/23 02:25:59;;;;;;;21.87;11.27;;;0.40;99.90;;;;;;7259877;32;20533;-78
2021/12/23 02:30:16;;;;;;;23.38;11.57;;;0.40;99.90;;;;;;7251077;32;20637;-79
2021/12/23 02:34:20;;;;;;;21.45;11.95;;;0.50;99.90;;;;;;7240416;32;20195;-78
2021/12/23 02:38:22;;;;;;;18.80;11.32;;;0.50;99.90;;;;;;7257568;32;20140;-78
2021/12/23 02:42:24;;;;;;;23.95;11.52;;;0.50;99.90;;;;;;7250939;32;20112;-78
2021/12/23 02:46:26;;;;;;;20.75;12.37;;;0.50;99.90;;;;;;7235845;32;20161;-78
2021/12/23 02:50:28;;;;;;;10.20;6.43;;;0.60;99.90;;;;;;7263272;32;20081;-80
2021/12/23 02:54:31;;;;;;;19.95;11.77;;;0.70;99.90;;;;;;7273260;32;20239;-77
2021/12/23 02:58:34;;;;;;;22.30;13.00;;;0.70;99.90;;;;;;7270050;32;20152;-78
2021/12/23 03:02:40;;;;;;;21.95;12.40;;;0.70;99.90;;;;;;7281812;32;20228;-77
2021/12/23 03:06:42;;;;;;;25.60;13.88;;;0.80;99.90;;;;;;7285742;32;20136;-76
2021/12/23 03:10:44;;;;;;;23.23;12.57;;;0.70;99.90;;;;;;7274827;32;20203;-78
2021/12/23 03:14:46;;;;;;;24.08;13.80;;;0.80;99.90;;;;;;7277554;32;20214;-77
2021/12/23 03:18:48;;;;;;;24.42;13.05;;;0.70;99.90;;;;;;7268870;32;20108;-78
2021/12/23 03:22:50;;;;;;;25.27;13.27;;;0.70;99.90;;;;;;7255480;32;20138;-78
2021/12/23 03:26:51;;;;;;;22.08;13.05;;;0.80;99.90;;;;;;7230806;32;20227;-78
2021/12/23 03:30:53;;;;;;;24.87;13.40;;;0.70;99.90;;;;;;7254239;32;20428;-78
2021/12/23 03:34:55;;;;;;;22.52;12.05;;;0.60;99.90;;;;;;7255049;32;20134;-79
2021/12/23 03:38:57;;;;;;;24.27;12.93;;;0.60;99.90;;;;;;7257776;32;20200;-78
2021/12/23 03:42:59;;;;;;;22.42;12.65;;;0.60;99.90;;;;;;7263266;32;20167;-79
2021/12/23 03:47:00;;;;;;;23.10;13.18;;;0.60;99.90;;;;;;7243600;32;20275;-79
2021/12/23 03:51:02;;;;;;;23.90;13.80;;;0.50;99.90;;;;;;7256295;32;20615;-78
2021/12/23 03:55:04;;;;;;;23.92;14.20;;;0.60;99.90;;;;;;7240954;32;20199;-78
2021/12/23 03:59:10;;;;;;;23.73;13.30;;;0.50;99.90;;;;;;7243614;32;20196;-78
2021/12/23 04:03:12;;;;;;;24.77;14.30;;;0.50;99.90;;;;;;7236332;32;20317;-79
2021/12/23 04:07:16;;;;;;;25.05;13.32;;;0.40;99.90;;;;;;7238557;32;20237;-78
2021/12/23 04:11:18;;;;;;;24.75;14.10;;;0.30;99.90;;;;;;7263070;32;20135;-78
2021/12/23 04:15:20;;;;;;;27.62;13.95;;;0.30;99.90;;;;;;7249789;32;20163;-78
2021/12/23 04:19:27;;;;;;;24.27;14.40;;;0.30;99.90;;;;;;7264096;32;20108;-78
2021/12/23 04:23:31;;;;;;;25.35;13.85;;;0.20;99.90;;;;;;7263481;32;20175;-79
2021/12/23 04:27:33;;;;;;;25.67;14.10;;;0.20;99.90;;;;;;7245285;32;20116;-78
2021/12/23 04:31:35;;;;;;;23.42;14.13;;;0.30;99.90;;;;;;7247887;32;20630;-78
2021/12/23 04:35:37;;;;;;;22.23;13.48;;;0.20;99.90;;;;;;7259302;32;20100;-78
2021/12/23 04:39:40;;;;;;;26.77;14.52;;;0.20;99.90;;;;;;7239168;32;20164;-79
2021/12/23 04:43:42;;;;;;;23.15;13.77;;;0.30;99.90;;;;;;7242380;32;20238;-78
2021/12/23 04:47:44;;;;;;;26.50;14.27;;;0.20;99.90;;;;;;7235853;32;20175;-79
2021/12/23 04:51:45;;;;;;;24.67;14.45;;;0.20;99.90;;;;;;7257507;32;20160;-79
2021/12/23 04:55:48;;;;;;;26.25;15.00;;;0.10;99.90;;;;;;7256653;32;20207;-78
2021/12/23 04:59:50;;;;;;;30.52;14.98;;;0.20;99.90;;;;;;7245573;32;20525;-79
2021/12/23 05:03:51;;;;;;;30.65;14.93;;;0.20;99.90;;;;;;7254416;32;20104;-78
2021/12/23 05:07:53;;;;;;;26.10;13.77;;;0.10;99.90;;;;;;7257864;32;20248;-79
2021/12/23 05:11:55;;;;;;;24.23;14.07;;;0.20;99.90;;;;;;7257499;32;20128;-79
2021/12/23 05:15:56;;;;;;;27.55;15.63;;;0.10;99.90;;;;;;7240586;32;20142;-78
2021/12/23 05:19:58;;;;;;;27.10;14.77;;;0.10;99.90;;;;;;7248038;32;20207;-79
2021/12/23 05:24:00;;;;;;;24.08;13.40;;;0.20;99.90;;;;;;7242885;32;20140;-79
2021/12/23 05:28:03;;;;;;;24.50;14.43;;;0.20;99.90;;;;;;7249112;32;20127;-79
2021/12/23 05:32:05;;;;;;;24.08;14.27;;;0.20;99.90;;;;;;7243112;32;20279;-79
2021/12/23 05:36:07;;;;;;;28.40;15.45;;;0.30;99.90;;;;;;7242859;32;20116;-79
2021/12/23 05:40:12;;;;;;;27.83;14.23;;;0.30;99.90;;;;;;7232081;32;20256;-79
2021/12/23 05:44:14;;;;;;;27.37;15.20;;;0.30;99.90;;;;;;7233666;32;20750;-79
2021/12/23 05:48:16;;;;;;;27.23;14.82;;;0.40;99.90;;;;;;7239455;32;20123;-79
2021/12/23 05:52:18;;;;;;;25.92;15.20;;;0.40;99.90;;;;;;7249596;32;20214;-79
2021/12/23 05:56:20;;;;;;;27.45;15.10;;;0.30;99.90;;;;;;7255679;32;20140;-78
2021/12/23 06:00:25;;;;;;;28.55;15.52;;;0.30;99.90;;;;;;7225354;32;20135;-79
2021/12/23 06:04:27;;;;;;;25.67;15.45;;;0.40;99.90;;;;;;7246841;32;20109;-79
2021/12/23 06:08:29;;;;;;;25.95;14.85;;;0.40;99.90;;;;;;7245965;32;20112;-79
2021/12/23 06:12:31;;;;;;;28.08;15.27;;;0.40;99.90;;;;;;7252960;32;20132;-78
2021/12/23 06:16:33;;;;;;;27.23;14.60;;;0.40;99.90;;;;;;7253707;32;20100;-79
2021/12/23 06:20:35;;;;;;;28.08;15.85;;;0.40;99.90;;;;;;7256293;32;20689;-79
2021/12/23 06:24:37;;;;;;;28.60;15.75;;;0.40;99.90;;;;;;7250021;32;20133;-79
2021/12/23 06:28:38;;;;;;;26.85;15.30;;;0.40;99.90;;;;;;7244183;32;20124;-78
2021/12/23 06:32:40;;;;;;;26.20;14.77;;;0.50;99.90;;;;;;7251782;32;20180;-78
2021/12/23 06:36:44;;;;;;;29.50;15.55;;;0.50;99.90;;;;;;7251871;32;20758;-79
2021/12/23 06:40:45;;;;;;;30.40;15.07;;;0.60;99.90;;;;;;7255095;32;20136;-80
2021/12/23 06:44:47;;;;;;;28.92;15.20;;;0.50;99.90;;;;;;7234429;32;20183;-79
2021/12/23 06:48:49;;;;;;;29.70;14.05;;;0.60;99.90;;;;;;7241790;32;20428;-79
2021/12/23 06:52:51;;;;;;;27.20;14.73;;;0.60;99.90;;;;;;7218238;32;20575;-79
2021/12/23 06:56:53;;;;;;;27.65;14.73;;;0.60;99.90;;;;;;7254449;32;20104;-79
2021/12/23 07:00:54;;;;;;;27.95;16.27;;;0.60;99.90;;;;;;7258569;32;20732;-79
2021/12/23 07:04:57;;;;;;;25.92;15.13;;;0.60;99.90;;;;;;7236531;32;20124;-80
2021/12/23 07:09:00;;;;;;;27.83;14.90;;;0.50;99.90;;;;;;7221320;32;20108;-78
2021/12/23 07:13:06;;;;;;;28.42;14.52;;;0.50;99.90;;;;;;7251440;32;20130;-78
2021/12/23 07:17:08;;;;;;;25.30;15.82;;;0.70;99.90;;;;;;7250339;32;20130;-78
2021/12/23 07:21:10;;;;;;;29.10;14.50;;;0.60;99.90;;;;;;7252487;32;20801;-78
2021/12/23 07:25:13;;;;;;;26.08;14.80;;;0.70;99.90;;;;;;7238679;32;20127;-78
2021/12/23 07:29:14;;;;;;;27.13;15.55;;;0.70;99.90;;;;;;7248813;32;20906;-79
2021/12/23 07:33:16;;;;;;;29.85;15.93;;;0.70;99.90;;;;;;7226010;32;20873;-78
2021/12/23 07:37:20;;;;;;;29.50;16.20;;;0.60;99.90;;;;;;7251203;32;20575;-78
2021/12/23 07:41:23;;;;;;;29.63;15.25;;;0.60;99.90;;;;;;7232254;32;20207;-78
2021/12/23 07:45:26;;;;;;;27.02;14.52;;;0.70;99.90;;;;;;7244390;32;20243;-78
2021/12/23 07:49:38;;;;;;;27.70;15.30;;;0.70;99.90;;;;;;7248402;32;20247;-78
2021/12/23 07:53:40;;;;;;;26.67;15.20;;;0.70;99.90;;;;;;7247096;32;20674;-78
2021/12/23 07:57:42;;;;;;;27.62;14.80;;;0.80;99.90;;;;;;7232877;32;20823;-78
2021/12/23 08:01:44;;;;;;;25.00;15.05;;;0.90;99.90;;;;;;7240412;32;20100;-78
2021/12/23 08:05:46;;;;;;;27.70;14.73;;;0.90;99.90;;;;;;7243331;32;20182;-77
2021/12/23 08:09:48;;;;;;;27.30;14.82;;;0.80;99.90;;;;;;7248103;32;20658;-78
2021/12/23 08:13:50;;;;;;;27.58;15.13;;;0.90;99.90;;;;;;7263790;32;20108;-78
2021/12/23 08:17:51;;;;;;;29.00;14.63;;;0.90;99.90;;;;;;7252540;32;20127;-79
2021/12/23 08:21:53;;;;;;;27.50;14.70;;;1.00;99.90;;;;;;7248611;32;20691;-75
2021/12/23 08:25:59;;;;;;;25.67;14.87;;;1.00;99.90;;;;;;7243072;32;20348;-78
2021/12/23 08:30:03;;;;;;;24.23;14.07;;;1.00;99.90;;;;;;7254029;32;20134;-79
2021/12/23 08:34:04;;;;;;;25.58;13.85;;;1.10;99.90;;;;;;7253904;32;20229;-80
2021/12/23 08:38:07;;;;;;;24.55;13.62;;;1.10;99.90;;;;;;7255539;32;20138;-76
2021/12/23 08:42:10;;;;;;;26.08;15.20;;;1.10;99.90;;;;;;7254724;32;20388;-79
2021/12/23 08:46:12;;;;;;;24.37;14.10;;;1.10;99.90;;;;;;7253205;32;20131;-80
2021/12/23 08:50:15;;;;;;;24.63;14.30;;;1.20;99.90;;;;;;7260889;32;20100;-77
2021/12/23 08:54:16;;;;;;;23.45;13.52;;;1.30;99.90;;;;;;7254058;32;20226;-80
2021/12/23 08:58:18;;;;;;;26.10;15.15;;;1.30;99.90;;;;;;7238075;32;20187;-79
2021/12/23 09:02:20;;;;;;;26.95;15.25;;;1.30;99.90;;;;;;7250026;32;20109;-79
2021/12/23 09:06:22;;;;;;;26.87;15.35;;;1.40;99.90;;;;;;7250823;32;20108;-79
2021/12/23 09:10:24;;;;;;;25.48;15.38;;;1.30;99.90;;;;;;7241449;32;20775;-78
2021/12/23 09:14:27;;;;;;;28.62;14.35;;;1.40;99.90;;;;;;7242935;32;20197;-77
2021/12/23 09:18:29;;;;;;;25.55;13.98;;;1.50;99.90;;;;;;7249938;32;20569;-78
2021/12/23 09:22:30;;;;;;;27.58;14.10;;;1.60;99.90;;;;;;7249349;32;20187;-78
2021/12/23 09:26:41;;;;;;;24.30;14.23;;;1.70;99.90;;;;;;7253354;32;20166;-78
2021/12/23 09:35:22;;;;;;;26.67;14.27;;;1.80;99.90;;;;;;7248092;32;20534;-82
2021/12/23 09:39:24;;;;;;;23.10;13.13;;;1.90;99.90;;;;;;7249560;32;20108;-79
2021/12/23 09:43:27;;;;;;;25.62;13.32;;;1.90;99.90;;;;;;7247795;32;20215;-79
2021/12/23 09:47:32;;;;;;;24.90;12.57;;;2.10;99.90;;;;;;7262937;32;20198;-84
2021/12/23 09:51:41;;;;;;;25.95;13.35;;;2.20;99.90;;;;;;7260168;32;20490;-79
2021/12/23 09:55:44;;;;;;;31.45;14.05;;;2.20;99.90;;;;;;7252334;32;20125;-78
2021/12/23 09:59:46;;;;;;;27.17;13.70;;;2.20;99.90;;;;;;7250161;32;20282;-78
2021/12/23 10:03:49;;;;;;;24.45;14.30;;;2.10;99.90;;;;;;7252887;32;20173;-78
2021/12/23 10:07:58;;;;;;;25.52;14.23;;;2.10;99.90;;;;;;7253026;32;20132;-84
2021/12/23 10:37:13;;;;;;;21.87;12.63;;;2.60;99.90;;;;;;7254441;32;20473;-82
2021/12/23 10:38:32;;;;;;;20.60;12.07;;;2.70;99.90;;;;;;7255647;32;20122;-85
2021/12/23 10:42:35;;;;;;;23.95;12.55;;;2.90;99.90;;;;;;7239101;32;20139;-79
2021/12/23 10:46:55;;;;;;;27.42;13.95;;;2.90;99.90;;;;;;7236739;32;20116;-76
2021/12/23 10:51:08;;;;;;;24.17;13.70;;;2.90;99.90;;;;;;7270177;32;20143;-77
2021/12/23 10:59:25;;;;;;;24.45;13.65;;;3.00;99.90;;;;;;7266701;32;20477;-79
2021/12/23 11:03:38;;;;;;;27.60;13.52;;;3.00;99.90;;;;;;7265080;32;20144;-77
2021/12/23 11:08:02;;;;;;;28.45;13.65;;;3.10;99.90;;;;;;7260542;32;20223;-83
2021/12/23 11:47:51;;;;;;;22.30;11.90;;;3.70;99.90;;;;;;7263298;32;20161;-76
2021/12/23 11:51:55;;;;;;;21.25;11.80;;;3.70;99.90;;;;;;7251705;32;20191;-77
2021/12/23 11:56:08;;;;;;;22.42;13.57;;;3.70;99.90;;;;;;7253133;32;20569;-81
2021/12/23 12:00:20;;;;;;;22.52;13.43;;;3.80;99.90;;;;;;7250285;32;20186;-77
2021/12/23 12:04:30;;;;;;;24.08;12.82;;;3.90;99.90;;;;;;7242691;32;20231;-77
2021/12/23 12:08:37;;;;;;;24.65;12.55;;;3.80;99.90;;;;;;7249371;32;20105;-78
2021/12/23 12:13:03;;;;;;;25.55;13.48;;;3.80;99.90;;;;;;7234482;32;20113;-77
2021/12/23 12:17:45;;;;;;;22.95;12.80;;;3.80;99.90;;;;;;7235208;32;20108;-77
2021/12/23 12:21:47;;;;;;;20.27;11.75;;;3.70;99.90;;;;;;7266928;32;20151;-85
2021/12/23 12:26:11;;;;;;;22.67;13.23;;;3.80;99.90;;;;;;7243159;32;20137;-77
2021/12/23 12:30:14;;;;;;;22.85;12.18;;;3.70;99.90;;;;;;7266863;32;20156;-78
2021/12/23 12:34:30;;;;;;;23.27;12.43;;;3.70;99.90;;;;;;7258688;32;20450;-83
2021/12/23 12:39:17;;;;;;;20.00;12.13;;;3.80;99.90;;;;;;7263996;32;20179;-78
2021/12/23 12:43:56;;;;;;;22.80;12.57;;;3.90;99.90;;;;;;7244632;32;20542;-84
2021/12/23 12:48:01;;;;;;;21.20;12.82;;;3.60;99.90;;;;;;7254828;32;20129;-77
2021/12/23 12:57:07;;;;;;;24.27;13.18;;;3.80;99.90;;;;;;7249667;32;20136;-78
2021/12/23 13:01:12;;;;;;;25.23;13.27;;;3.90;99.90;;;;;;7260864;32;20136;-79
2021/12/23 13:05:14;;;;;;;21.58;13.07;;;3.80;99.90;;;;;;7251529;32;20121;-78
2021/12/23 13:09:27;;;;;;;20.17;12.02;;;3.80;99.90;;;;;;7260483;32;20930;-85
2021/12/23 13:13:40;;;;;;;23.35;12.82;;;3.90;99.90;;;;;;7250120;32;20486;-77
2021/12/23 13:17:57;;;;;;;23.52;13.43;;;3.90;99.90;;;;;;7259145;32;20481;-77
2021/12/23 13:22:03;;;;;;;20.75;12.68;;;4.00;99.90;;;;;;7257837;32;20165;-77
2021/12/23 13:26:16;;;;;;;23.48;13.23;;;4.20;99.90;;;;;;7266262;32;20124;-84
2021/12/23 13:30:17;;;;;;;22.87;13.07;;;4.20;99.90;;;;;;7259303;32;20108;-77
2021/12/23 13:34:26;;;;;;;21.98;11.95;;;4.10;99.90;;;;;;7260448;32;20104;-77
2021/12/23 13:38:44;;;;;;;23.15;12.77;;;4.30;99.90;;;;;;7259901;32;20821;-80
2021/12/23 13:42:46;;;;;;;26.80;14.02;;;4.20;99.90;;;;;;7262938;32;20531;-78
2021/12/23 13:47:05;;;;;;;23.83;13.65;;;4.30;99.90;;;;;;7256761;32;20180;-78
2021/12/23 13:51:07;;;;;;;22.98;13.38;;;4.40;99.90;;;;;;7247305;32;20174;-77
2021/12/23 13:55:17;;;;;;;21.67;12.15;;;4.40;99.90;;;;;;7257895;32;20142;-76
2021/12/23 13:59:21;;;;;;;23.40;13.68;;;4.50;99.90;;;;;;7262880;32;20676;-79
2021/12/23 14:03:26;;;;;;;24.77;13.88;;;4.40;99.90;;;;;;7243747;32;20193;-87
2021/12/23 14:07:34;;;;;;;22.70;13.77;;;4.40;99.90;;;;;;7254721;32;20188;-79
2021/12/23 14:11:49;;;;;;;24.95;13.35;;;4.30;99.90;;;;;;7242645;32;20120;-79
2021/12/23 14:15:51;;;;;;;23.52;14.20;;;4.20;99.90;;;;;;7235321;32;20108;-79
2021/12/23 14:24:50;;;;;;;25.33;14.15;;;4.50;99.90;;;;;;7200839;32;20633;-87
2021/12/23 14:29:06;;;;;;;26.62;14.38;;;4.50;99.90;;;;;;7245945;32;20131;-79
2021/12/23 14:33:15;;;;;;;23.58;13.98;;;4.50;99.90;;;;;;7255662;32;20236;-79
2021/12/23 14:37:17;;;;;;;23.87;13.55;;;4.70;99.90;;;;;;7250703;32;20302;-78
2021/12/23 14:41:19;;;;;;;22.75;13.52;;;4.70;99.90;;;;;;7256477;32;20113;-79
2021/12/23 14:45:21;;;;;;;26.60;14.48;;;4.70;99.90;;;;;;7256021;32;20135;-79
2021/12/23 14:49:59;;;;;;;23.67;13.27;;;4.50;99.90;;;;;;7255615;32;20121;-85
2021/12/23 14:54:18;;;;;;;23.58;14.45;;;4.60;99.90;;;;;;7258707;32;20108;-87
2021/12/23 14:58:23;;;;;;;24.80;12.80;;;4.60;99.90;;;;;;7235891;32;20121;-85
2021/12/23 15:02:28;;;;;;;23.23;14.23;;;4.60;99.90;;;;;;7255680;32;20138;-78
2021/12/23 15:06:30;;;;;;;27.48;13.70;;;4.50;99.90;;;;;;7241016;32;20560;-80
2021/12/23 15:10:49;;;;;;;25.52;13.65;;;4.60;99.90;;;;;;7243261;32;20233;-78
2021/12/23 15:14:53;;;;;;;25.20;13.57;;;4.70;99.90;;;;;;7251754;32;20173;-79
2021/12/23 15:19:25;;;;;;;25.08;14.40;;;4.60;99.90;;;;;;7230938;32;21097;-78
2021/12/23 15:23:37;;;;;;;25.23;14.20;;;4.50;99.90;;;;;;7244730;32;20211;-78
2021/12/23 15:27:42;;;;;;;24.15;13.82;;;4.70;99.90;;;;;;7263191;32;20126;-79
2021/12/23 15:32:03;;;;;;;26.08;13.95;;;4.70;99.90;;;;;;7250166;32;20117;-78
2021/12/23 15:36:08;;;;;;;26.42;13.90;;;4.70;99.90;;;;;;7239433;32;20203;-78
2021/12/23 15:40:24;;;;;;;24.60;14.25;;;4.70;99.90;;;;;;7254029;32;20214;-78
2021/12/23 15:44:37;;;;;;;25.27;13.65;;;4.70;99.90;;;;;;7240575;32;20629;-77
2021/12/23 15:48:41;;;;;;;24.65;13.45;;;4.80;99.90;;;;;;7241302;32;20679;-78
2021/12/23 15:52:43;;;;;;;24.52;13.75;;;4.90;99.90;;;;;;7253025;32;20123;-78
2021/12/23 15:56:45;;;;;;;28.02;14.90;;;4.90;99.90;;;;;;7234877;32;20103;-78
2021/12/23 16:00:48;;;;;;;25.95;14.20;;;4.80;99.90;;;;;;7251740;32;20743;-78
2021/12/23 16:09:05;;;;;;;23.87;13.88;;;4.90;99.90;;;;;;7241095;32;20755;-79
2021/12/23 16:13:09;;;;;;;26.30;15.07;;;4.90;99.90;;;;;;7242484;32;20172;-80
2021/12/23 16:17:12;;;;;;;24.70;14.07;;;4.90;99.90;;;;;;7250265;32;20138;-80
2021/12/23 16:21:14;;;;;;;26.52;14.30;;;5.10;99.90;;;;;;7251836;32;20105;-79
2021/12/23 16:25:16;;;;;;;22.92;13.65;;;5.10;99.90;;;;;;7249704;32;20128;-76
2021/12/23 16:29:17;;;;;;;27.25;15.02;;;5.20;99.90;;;;;;7256362;32;20212;-78
2021/12/23 16:33:19;;;;;;;24.70;14.63;;;5.20;99.90;;;;;;7265076;32;20100;-78
2021/12/23 16:37:22;;;;;;;28.85;14.40;;;5.10;99.90;;;;;;7250048;32;20204;-79
2021/12/23 16:41:26;;;;;;;25.48;13.57;;;5.20;99.90;;;;;;7247560;32;20112;-79
2021/12/23 16:45:29;;;;;;;22.65;13.98;;;5.20;99.90;;;;;;7267410;32;20187;-79
2021/12/23 16:49:31;;;;;;;26.35;14.20;;;5.30;99.90;;;;;;7246714;32;20295;-76
2021/12/23 16:53:34;;;;;;;23.70;14.30;;;5.30;99.90;;;;;;7242684;32;20228;-78
2021/12/23 16:57:37;;;;;;;27.58;13.65;;;5.30;99.90;;;;;;7259353;32;20177;-78
2021/12/23 17:01:39;;;;;;;25.27;14.45;;;5.40;99.90;;;;;;7244311;32;20215;-78
2021/12/23 17:05:44;;;;;;;29.35;14.13;;;5.50;99.90;;;;;;7244142;32;20151;-79
2021/12/23 17:09:46;;;;;;;29.05;13.73;;;5.40;99.90;;;;;;7258823;32;20378;-79
2021/12/23 17:13:49;;;;;;;26.77;14.32;;;5.60;99.90;;;;;;7250261;32;20264;-78
2021/12/23 17:17:59;;;;;;;25.65;14.45;;;5.50;99.90;;;;;;7263028;32;20108;-79
2021/12/23 17:22:02;;;;;;;26.92;14.32;;;5.60;99.90;;;;;;7256816;32;20112;-79
2021/12/23 17:26:04;;;;;;;26.45;14.38;;;5.60;99.90;;;;;;7262424;32;20170;-78
2021/12/23 17:30:22;;;;;;;28.23;15.40;;;5.60;99.90;;;;;;7250802;32;20165;-77
2021/12/23 17:34:24;;;;;;;24.70;14.95;;;5.50;99.90;;;;;;7264256;32;20124;-78
2021/12/23 17:38:29;;;;;;;27.87;14.93;;;5.50;99.90;;;;;;7281341;32;20108;-79
2021/12/23 17:42:31;;;;;;;26.60;14.60;;;5.60;99.90;;;;;;7272598;32;20065;-78
2021/12/23 17:46:34;;;;;;;27.55;14.43;;;5.60;99.90;;;;;;7268367;32;20057;-77
2021/12/23 17:50:38;;;;;;;25.45;14.35;;;5.60;99.90;;;;;;7275141;32;20130;-77
2021/12/23 17:54:40;;;;;;;25.92;14.27;;;5.60;99.90;;;;;;7275715;32;20064;-77
2021/12/23 17:58:43;;;;;;;24.75;14.13;;;5.60;99.90;;;;;;7286419;32;20084;-78
2021/12/23 18:02:46;;;;;;;27.73;14.77;;;5.50;99.90;;;;;;7282776;32;20132;-77
2021/12/23 18:06:48;;;;;;;26.17;14.93;;;5.40;99.90;;;;;;7278063;32;20167;-78
2021/12/23 18:10:52;;;;;;;26.58;16.20;;;5.50;99.90;;;;;;7262683;32;20092;-78
2021/12/23 18:14:54;;;;;;;29.25;15.38;;;5.40;99.90;;;;;;7258434;32;20085;-77
2021/12/23 18:18:56;;;;;;;26.20;14.35;;;5.40;99.90;;;;;;7287973;32;20100;-77
2021/12/23 18:22:59;;;;;;;24.08;13.68;;;5.60;99.90;;;;;;7271054;32;20211;-78
2021/12/23 18:27:01;;;;;;;28.38;15.05;;;5.70;99.90;;;;;;7250657;32;20177;-77
2021/12/23 18:31:03;;;;;;;31.70;14.40;;;5.70;99.90;;;;;;7268225;32;20104;-77
2021/12/23 18:35:06;;;;;;;28.45;14.20;;;5.70;99.90;;;;;;7258736;32;20151;-77
2021/12/23 18:39:15;;;;;;;23.15;13.38;;;5.70;99.90;;;;;;7261636;32;20259;-76
2021/12/23 18:43:18;;;;;;;26.10;14.50;;;5.80;99.90;;;;;;7258788;32;20128;-77
2021/12/23 18:47:20;;;;;;;28.23;14.40;;;5.80;99.90;;;;;;7259342;32;20131;-77
2021/12/23 18:51:25;;;;;;;24.08;13.45;;;5.90;99.90;;;;;;7242646;32;20161;-77
2021/12/23 18:55:50;;;;;;;26.20;14.77;;;5.90;99.90;;;;;;7257191;32;20558;-78
2021/12/23 18:59:52;;;;;;;27.08;14.87;;;5.90;99.90;;;;;;7258210;32;20155;-78
2021/12/23 19:07:58;;;;;;;29.77;14.60;;;5.80;99.90;;;;;;7256838;32;20552;-78
2021/12/23 19:12:00;;;;;;;32.20;16.60;;;5.80;99.90;;;;;;7243201;32;20120;-78
2021/12/23 19:16:03;;;;;;;31.67;16.95;;;5.80;99.90;;;;;;7260749;32;20239;-79
2021/12/23 19:20:11;;;;;;;30.90;18.75;;;5.70;99.90;;;;;;7255134;32;20108;-79
2021/12/23 19:24:14;;;;;;;31.42;16.60;;;5.60;99.90;;;;;;7245033;32;20178;-78
2021/12/23 19:28:16;;;;;;;32.03;17.73;;;5.60;99.90;;;;;;7221081;32;20112;-77
2021/12/23 19:32:18;;;;;;;30.80;17.48;;;5.70;99.90;;;;;;7244067;32;20769;-78
2021/12/23 19:36:20;;;;;;;30.73;17.23;;;5.70;99.90;;;;;;7246079;32;20113;-78
2021/12/23 19:40:23;;;;;;;35.70;17.23;;;5.70;99.90;;;;;;7235475;32;20277;-79
2021/12/23 19:44:26;;;;;;;29.12;17.02;;;5.60;99.90;;;;;;7221164;32;20215;-79
2021/12/23 19:48:28;;;;;;;33.33;17.02;;;5.70;99.90;;;;;;7254131;32;20199;-78
2021/12/23 19:52:31;;;;;;;31.52;16.92;;;5.70;99.90;;;;;;7255137;32;20142;-78
2021/12/23 19:56:33;;;;;;;30.67;17.37;;;5.80;99.90;;;;;;7239543;32;20537;-78
2021/12/23 20:00:36;;;;;;;30.25;16.62;;;5.70;99.90;;;;;;7246651;32;20117;-79
2021/12/23 20:04:38;;;;;;;32.97;18.02;;;5.70;99.90;;;;;;7239131;32;20128;-78
2021/12/23 20:08:40;;;;;;;36.05;18.52;;;5.70;99.90;;;;;;7242501;32;20281;-76
2021/12/23 20:12:43;;;;;;;30.73;17.77;;;5.80;99.90;;;;;;7258344;32;20135;-78
2021/12/23 20:16:45;;;;;;;34.70;19.80;;;6.00;99.90;;;;;;7248525;32;20105;-78
2021/12/23 20:20:47;;;;;;;36.40;18.40;;;5.90;99.90;;;;;;7253141;32;20174;-79
2021/12/23 20:24:49;;;;;;;28.87;17.10;;;5.90;99.90;;;;;;7264526;32;20204;-78
2021/12/23 20:28:51;;;;;;;30.23;17.73;;;5.80;99.90;;;;;;7252092;32;20245;-77
2021/12/23 20:32:55;;;;;;;26.60;17.48;;;5.80;99.90;;;;;;7256443;32;20659;-77
2021/12/23 20:36:57;;;;;;;29.45;17.52;;;5.80;99.90;;;;;;7266664;32;20761;-78
2021/12/23 20:40:59;;;;;;;31.48;18.25;;;5.80;99.90;;;;;;7240984;32;20120;-76
2021/12/23 20:45:02;;;;;;;27.92;16.25;;;5.80;99.90;;;;;;7229350;32;20116;-78
2021/12/23 20:49:04;;;;;;;24.35;16.48;;;5.80;99.90;;;;;;7253629;32;20226;-77
2021/12/23 20:53:10;;;;;;;23.17;14.45;;;5.80;99.90;;;;;;7251584;32;20128;-77
2021/12/23 20:57:12;;;;;;;22.40;13.95;;;5.80;99.90;;;;;;7257487;32;20135;-76
2021/12/23 21:01:14;;;;;;;26.62;13.90;;;5.80;99.90;;;;;;7252525;32;20174;-77
2021/12/23 21:05:17;;;;;;;20.88;14.55;;;5.80;99.90;;;;;;7258475;32;20836;-77
2021/12/23 21:09:19;;;;;;;21.62;14.23;;;5.90;99.90;;;;;;7239506;32;20530;-77
2021/12/23 21:13:24;;;;;;;21.45;14.25;;;5.90;99.90;;;;;;7236362;32;20132;-78
2021/12/23 21:17:26;;;;;;;24.27;14.98;;;5.90;99.90;;;;;;7229403;32;20443;-77
2021/12/23 21:21:28;;;;;;;23.85;14.82;;;5.90;99.90;;;;;;7238758;32;20117;-79
2021/12/23 21:25:30;;;;;;;21.75;14.87;;;6.10;99.90;;;;;;7241135;32;20582;-77
2021/12/23 21:29:32;;;;;;;23.83;15.27;;;6.10;99.90;;;;;;7254359;32;20128;-78
2021/12/23 21:33:34;;;;;;;22.52;14.52;;;6.20;99.90;;;;;;7256887;32;20105;-78
2021/12/23 21:37:37;;;;;;;25.33;14.55;;;6.30;99.90;;;;;;7231857;32;20231;-78
2021/12/23 21:41:40;;;;;;;24.08;15.43;;;6.50;99.90;;;;;;7240462;32;20215;-77
2021/12/23 21:45:43;;;;;;;28.52;15.82;;;6.60;99.90;;;;;;7242064;32;20645;-78
2021/12/23 21:49:48;;;;;;;25.55;16.37;;;6.60;99.90;;;;;;7242149;32;20176;-78
2021/12/23 21:53:51;;;;;;;28.38;16.48;;;6.60;99.90;;;;;;7246193;32;20136;-76
2021/12/23 21:57:59;;;;;;;24.70;14.63;;;6.60;99.90;;;;;;7244053;32;20235;-78
2021/12/23 22:02:01;;;;;;;23.80;14.43;;;6.70;99.90;;;;;;7230991;32;20105;-78
2021/12/23 22:06:03;;;;;;;21.55;14.48;;;6.80;99.90;;;;;;7256330;32;20309;-78
2021/12/23 22:10:07;;;;;;;22.55;14.35;;;6.90;99.90;;;;;;7258471;32;20567;-80
2021/12/23 22:14:09;;;;;;;22.65;14.02;;;6.90;99.90;;;;;;7239778;32;20287;-78
2021/12/23 22:18:12;;;;;;;23.45;14.48;;;6.90;99.90;;;;;;7243292;32;20207;-80
2021/12/23 22:22:27;;;;;;;28.92;15.57;;;7.00;99.90;;;;;;7263283;32;20155;-77
2021/12/23 22:26:30;;;;;;;26.55;17.00;;;7.00;99.90;;;;;;7259776;32;20510;-79